Time;durP1;ratioP1;P1;durP2;ratioP2;P2;SDS_P1;SDS_P2;PMS_P1;PMS_P2;Temp;Humidity;BMP_temperature;BMP_pressure;BME280_temperature;BME280_humidity;BME280_pressure;Samples;Min_cycle;Max_cycle;Signal;HPM_P1;HPM_P2
2022/12/23 00:00:35;;;;;;;16.58;15.57;;;;;;;;;;5013596;28;20064;-64
2022/12/23 00:03:00;;;;;;;16.80;15.80;;;;;;;;;;5009853;28;20029;-64
2022/12/23 00:05:26;;;;;;;16.80;15.80;;;;;;;;;;5014769;28;20059;-64
2022/12/23 00:07:51;;;;;;;16.30;15.32;;;;;;;;;;5015487;28;20052;-64
2022/12/23 00:10:16;;;;;;;16.42;15.43;;;;;;;;;;5012049;28;20069;-65
2022/12/23 00:15:26;;;;;;;16.27;15.38;;;;;;;;;;5014129;28;20030;-65
2022/12/23 00:17:51;;;;;;;17.02;16.08;;;;;;;;;;5011098;28;20034;-65
2022/12/23 00:20:16;;;;;;;17.48;16.50;;;;;;;;;;5012550;28;20034;-65
2022/12/23 00:25:43;;;;;;;17.98;16.98;;;;;;;;;;5014941;28;20621;-66
2022/12/23 00:28:14;;;;;;;15.13;14.23;;;;;;;;;;5008464;28;20052;-65
2022/12/23 00:30:45;;;;;;;16.35;15.45;;;;;;;;;;5012952;28;20025;-65
2022/12/23 00:33:12;;;;;;;15.15;14.25;;;;;;;;;;5012652;28;20532;-64
2022/12/23 00:35:37;;;;;;;15.38;14.48;;;;;;;;;;5011962;28;20135;-65
2022/12/23 00:38:03;;;;;;;17.33;16.35;;;;;;;;;;5014793;28;20124;-64
2022/12/23 00:43:12;;;;;;;15.27;14.38;;;;;;;;;;5016336;28;20064;-64
2022/12/23 00:45:37;;;;;;;15.13;14.25;;;;;;;;;;5012455;28;20060;-64
2022/12/23 00:50:50;;;;;;;15.80;14.90;;;;;;;;;;5014088;28;20041;-64
2022/12/23 00:53:15;;;;;;;15.13;14.27;;;;;;;;;;5014431;28;20367;-65
2022/12/23 00:55:41;;;;;;;16.23;15.13;;;;;;;;;;5012076;28;20036;-64
2022/12/23 00:58:06;;;;;;;16.08;15.10;;;;;;;;;;5011361;28;20042;-64
2022/12/23 01:06:02;;;;;;;15.50;14.60;;;;;;;;;;5012339;28;20124;-64
2022/12/23 01:08:28;;;;;;;16.40;15.50;;;;;;;;;;5010793;28;20044;-63
2022/12/23 01:10:53;;;;;;;15.40;14.50;;;;;;;;;;5013971;28;20038;-64
2022/12/23 01:13:19;;;;;;;15.85;14.95;;;;;;;;;;5011294;28;20680;-64
2022/12/23 01:15:44;;;;;;;16.20;15.30;;;;;;;;;;5013397;28;20039;-65
2022/12/23 01:18:10;;;;;;;16.67;15.68;;;;;;;;;;5011794;28;20042;-65
2022/12/23 01:20:39;;;;;;;16.35;15.35;;;;;;;;;;5010177;28;20217;-64
2022/12/23 01:23:05;;;;;;;15.57;14.68;;;;;;;;;;5009709;28;20029;-64
2022/12/23 01:25:31;;;;;;;14.38;13.57;;;;;;;;;;5012158;28;20034;-64
2022/12/23 01:27:56;;;;;;;14.55;13.75;;;;;;;;;;5014849;28;20045;-64
2022/12/23 01:30:21;;;;;;;14.60;13.80;;;;;;;;;;5010855;28;20111;-65
2022/12/23 01:32:47;;;;;;;14.13;13.32;;;;;;;;;;5014556;28;20156;-64
2022/12/23 01:35:12;;;;;;;16.02;15.02;;;;;;;;;;5011766;28;20064;-64
2022/12/23 01:37:37;;;;;;;14.73;13.82;;;;;;;;;;5015212;28;20150;-65
2022/12/23 01:40:04;;;;;;;13.70;12.90;;;;;;;;;;5013598;28;20037;-65
2022/12/23 01:42:45;;;;;;;14.55;13.75;;;;;;;;;;5014012;28;20033;-65
2022/12/23 01:45:26;;;;;;;15.73;14.73;;;;;;;;;;5010261;28;20095;-65
2022/12/23 01:48:02;;;;;;;13.88;13.07;;;;;;;;;;5012306;28;20760;-65
2022/12/23 01:50:50;;;;;;;13.95;13.15;;;;;;;;;;5011179;28;20045;-65
2022/12/23 01:53:33;;;;;;;15.43;14.52;;;;;;;;;;5013640;28;20049;-65
2022/12/23 01:56:06;;;;;;;15.70;14.80;;;;;;;;;;5012918;28;20048;-65
2022/12/23 01:58:48;;;;;;;15.48;14.48;;;;;;;;;;5011148;28;20128;-65
2022/12/23 02:04:03;;;;;;;18.25;17.25;;;;;;;;;;5013511;28;20372;-65
2022/12/23 02:09:25;;;;;;;17.15;16.23;;;;;;;;;;5011738;28;20033;-65
2022/12/23 02:12:26;;;;;;;17.23;16.23;;;;;;;;;;5012170;28;20042;-65
2022/12/23 02:18:23;;;;;;;18.45;17.38;;;;;;;;;;5015410;28;20042;-65
2022/12/23 02:20:51;;;;;;;17.30;16.33;;;;;;;;;;5018540;28;20041;-65
2022/12/23 02:23:32;;;;;;;19.88;18.77;;;;;;;;;;5021913;28;20560;-65
2022/12/23 02:26:27;;;;;;;18.73;17.73;;;;;;;;;;5018853;28;20064;-66
2022/12/23 02:29:01;;;;;;;18.25;17.23;;;;;;;;;;5017909;28;20127;-65
2022/12/23 02:31:51;;;;;;;18.98;17.88;;;;;;;;;;5016722;28;20582;-65
2022/12/23 02:34:58;;;;;;;19.75;18.63;;;;;;;;;;5019889;28;20060;-65
2022/12/23 02:37:56;;;;;;;19.55;18.48;;;;;;;;;;5018823;28;20145;-65
2022/12/23 02:40:41;;;;;;;19.63;18.55;;;;;;;;;;5019954;28;20491;-65
2022/12/23 02:43:25;;;;;;;20.13;19.02;;;;;;;;;;5018087;28;20332;-64
2022/12/23 02:46:33;;;;;;;22.00;20.83;;;;;;;;;;5020293;28;20198;-64
2022/12/23 02:49:22;;;;;;;19.70;18.63;;;;;;;;;;5013292;28;20426;-65
2022/12/23 02:51:53;;;;;;;20.90;19.77;;;;;;;;;;5018172;28;20150;-65
2022/12/23 02:54:31;;;;;;;20.70;19.55;;;;;;;;;;5019577;28;20248;-65
2022/12/23 02:57:00;;;;;;;19.63;18.55;;;;;;;;;;5019737;28;20049;-65
2022/12/23 02:59:29;;;;;;;20.42;19.30;;;;;;;;;;5018328;28;20493;-65
2022/12/23 03:01:56;;;;;;;19.77;18.70;;;;;;;;;;5018224;28;20038;-65
2022/12/23 03:04:21;;;;;;;20.65;19.55;;;;;;;;;;5016453;28;20045;-65
2022/12/23 03:06:51;;;;;;;19.23;18.13;;;;;;;;;;5015751;28;20049;-65
2022/12/23 03:09:29;;;;;;;17.60;16.60;;;;;;;;;;5016450;28;20407;-66
2022/12/23 03:11:58;;;;;;;18.00;17.00;;;;;;;;;;5016482;28;20072;-65
2022/12/23 03:14:56;;;;;;;15.75;14.85;;;;;;;;;;5018629;28;20085;-65
2022/12/23 03:17:35;;;;;;;15.48;14.57;;;;;;;;;;5018664;28;20042;-65
2022/12/23 03:20:27;;;;;;;15.32;14.43;;;;;;;;;;5018092;28;20500;-65
2022/12/23 03:23:10;;;;;;;17.33;16.33;;;;;;;;;;5019395;28;20056;-65
2022/12/23 03:25:52;;;;;;;15.38;14.38;;;;;;;;;;5016380;28;20037;-65
2022/12/23 03:28:31;;;;;;;14.15;13.35;;;;;;;;;;5016822;28;20683;-65
2022/12/23 03:30:59;;;;;;;15.38;14.48;;;;;;;;;;5011824;28;20059;-66
2022/12/23 03:33:35;;;;;;;15.23;14.32;;;;;;;;;;5015638;28;20037;-66
2022/12/23 03:36:08;;;;;;;14.68;13.77;;;;;;;;;;5015092;28;20052;-65
2022/12/23 03:38:39;;;;;;;13.52;12.73;;;;;;;;;;5024210;28;20464;-65
2022/12/23 03:41:09;;;;;;;15.50;13.97;;;;;;;;;;5016154;28;20926;-65
2022/12/23 03:43:46;;;;;;;14.38;13.57;;;;;;;;;;5014269;28;20048;-65
2022/12/23 03:46:17;;;;;;;15.55;14.65;;;;;;;;;;5012569;28;20049;-65
2022/12/23 03:48:47;;;;;;;14.43;13.63;;;;;;;;;;5011709;28;20037;-65
2022/12/23 03:51:22;;;;;;;15.38;14.45;;;;;;;;;;5011546;28;20520;-65
2022/12/23 03:53:58;;;;;;;15.43;14.52;;;;;;;;;;5014219;28;20638;-65
2022/12/23 03:56:35;;;;;;;14.82;14.02;;;;;;;;;;5023959;28;20099;-66
2022/12/23 03:59:18;;;;;;;14.35;13.55;;;;;;;;;;5015333;28;20033;-65
2022/12/23 04:01:50;;;;;;;13.65;12.85;;;;;;;;;;5014793;28;20091;-65
2022/12/23 04:04:29;;;;;;;14.48;13.68;;;;;;;;;;5012309;28;20132;-65
2022/12/23 04:06:59;;;;;;;16.30;15.30;;;;;;;;;;5013269;28;20069;-65
2022/12/23 04:09:27;;;;;;;14.35;13.52;;;;;;;;;;5013535;28;20034;-65
2022/12/23 04:11:53;;;;;;;13.73;12.93;;;;;;;;;;5013550;28;20052;-65
2022/12/23 04:14:20;;;;;;;13.45;12.65;;;;;;;;;;5014358;28;20804;-65
2022/12/23 04:16:46;;;;;;;15.27;14.38;;;;;;;;;;5015597;28;20029;-65
2022/12/23 04:19:12;;;;;;;14.88;14.00;;;;;;;;;;5013923;28;20052;-66
2022/12/23 04:21:37;;;;;;;14.55;13.60;;;;;;;;;;5015748;28;20041;-66
2022/12/23 04:24:03;;;;;;;14.35;13.55;;;;;;;;;;5013902;28;20038;-66
2022/12/23 04:26:28;;;;;;;14.25;13.35;;;;;;;;;;5017688;28;20399;-66
2022/12/23 04:28:54;;;;;;;15.30;14.40;;;;;;;;;;5014816;28;20363;-66
2022/12/23 04:31:19;;;;;;;14.88;13.98;;;;;;;;;;5015089;28;20065;-65
2022/12/23 04:33:44;;;;;;;13.82;13.02;;;;;;;;;;5014843;28;20042;-65
2022/12/23 04:36:10;;;;;;;13.98;13.07;;;;;;;;;;5014243;28;20037;-65
2022/12/23 04:38:35;;;;;;;13.68;12.88;;;;;;;;;;5014390;28;20139;-65
2022/12/23 04:41:01;;;;;;;13.82;13.02;;;;;;;;;;5014676;28;20415;-65
2022/12/23 04:43:26;;;;;;;14.57;13.70;;;;;;;;;;5021961;28;20047;-66
2022/12/23 04:45:52;;;;;;;13.77;12.98;;;;;;;;;;5013236;28;20577;-66
2022/12/23 04:48:18;;;;;;;14.02;13.23;;;;;;;;;;5014333;28;20035;-65
2022/12/23 04:50:43;;;;;;;13.90;13.10;;;;;;;;;;5012963;28;20041;-65
2022/12/23 04:53:09;;;;;;;14.82;13.98;;;;;;;;;;5013484;28;20042;-65
2022/12/23 04:55:34;;;;;;;14.30;13.48;;;;;;;;;;5013076;28;20358;-65
2022/12/23 04:57:59;;;;;;;15.65;14.75;;;;;;;;;;5012991;28;20034;-67
2022/12/23 05:00:25;;;;;;;15.02;14.13;;;;;;;;;;5009960;28;20038;-66
2022/12/23 05:02:50;;;;;;;14.27;13.48;;;;;;;;;;5011379;28;20041;-66
2022/12/23 05:05:15;;;;;;;14.30;13.50;;;;;;;;;;5010928;28;20038;-66
2022/12/23 05:07:41;;;;;;;14.13;13.32;;;;;;;;;;5014402;28;20481;-67
2022/12/23 05:10:07;;;;;;;14.50;13.63;;;;;;;;;;5014266;28;20116;-65
2022/12/23 05:12:32;;;;;;;13.90;13.07;;;;;;;;;;5011443;28;20040;-67
2022/12/23 05:14:58;;;;;;;14.43;13.52;;;;;;;;;;5014749;28;20743;-66
2022/12/23 05:17:23;;;;;;;13.73;12.93;;;;;;;;;;5011712;28;20515;-67
2022/12/23 05:19:48;;;;;;;14.48;13.68;;;;;;;;;;5012815;28;20029;-67
2022/12/23 05:22:14;;;;;;;13.05;12.25;;;;;;;;;;5013761;28;20483;-66
2022/12/23 05:24:39;;;;;;;13.32;12.52;;;;;;;;;;5013857;28;20034;-67
2022/12/23 05:27:04;;;;;;;13.43;12.63;;;;;;;;;;5021194;28;20506;-66
2022/12/23 05:29:30;;;;;;;12.75;12.02;;;;;;;;;;5012619;28;20026;-67
2022/12/23 05:31:55;;;;;;;14.05;13.15;;;;;;;;;;5013355;28;20379;-65
2022/12/23 05:34:20;;;;;;;14.93;13.98;;;;;;;;;;5012813;28;20045;-67
2022/12/23 05:36:46;;;;;;;12.48;11.75;;;;;;;;;;5015886;28;20033;-67
2022/12/23 05:39:11;;;;;;;14.35;13.13;;;;;;;;;;5011427;28;20033;-67
2022/12/23 05:41:36;;;;;;;12.70;11.98;;;;;;;;;;5011843;28;20030;-67
2022/12/23 05:44:02;;;;;;;13.18;12.38;;;;;;;;;;5014401;28;20563;-67
2022/12/23 05:46:27;;;;;;;13.52;12.70;;;;;;;;;;5014013;28;20040;-67
2022/12/23 05:48:53;;;;;;;13.13;12.32;;;;;;;;;;5019548;28;20030;-66
2022/12/23 05:51:18;;;;;;;13.93;13.13;;;;;;;;;;5015018;28;20026;-66
2022/12/23 05:53:44;;;;;;;12.85;12.13;;;;;;;;;;5014282;28;20153;-66
2022/12/23 05:56:09;;;;;;;14.73;13.88;;;;;;;;;;5012973;28;20064;-67
2022/12/23 05:58:34;;;;;;;14.13;13.32;;;;;;;;;;5011704;28;20087;-63
2022/12/23 06:01:01;;;;;;;13.82;12.93;;;;;;;;;;5013984;28;20044;-64
2022/12/23 06:03:27;;;;;;;13.32;12.52;;;;;;;;;;5012803;28;20037;-66
2022/12/23 06:05:53;;;;;;;13.23;12.43;;;;;;;;;;5013275;28;20033;-67
2022/12/23 06:08:19;;;;;;;13.40;12.60;;;;;;;;;;5011331;28;20030;-67
2022/12/23 06:10:44;;;;;;;12.52;11.82;;;;;;;;;;5010739;28;20451;-66
2022/12/23 06:13:10;;;;;;;13.07;12.27;;;;;;;;;;5010832;28;20049;-67
2022/12/23 06:15:35;;;;;;;13.68;12.88;;;;;;;;;;5011087;28;20029;-67
2022/12/23 06:18:01;;;;;;;13.30;12.50;;;;;;;;;;5009440;28;20026;-67
2022/12/23 06:20:26;;;;;;;13.30;12.50;;;;;;;;;;5010081;28;20644;-67
2022/12/23 06:22:51;;;;;;;12.52;11.73;;;;;;;;;;5010952;28;20523;-67
2022/12/23 06:25:17;;;;;;;13.90;13.05;;;;;;;;;;5011634;28;20030;-60
2022/12/23 06:27:43;;;;;;;12.98;12.20;;;;;;;;;;5011570;28;20055;-60
2022/12/23 06:30:09;;;;;;;12.38;11.68;;;;;;;;;;5010576;28;20093;-60
2022/12/23 06:32:34;;;;;;;13.88;13.07;;;;;;;;;;5017856;28;20030;-60
2022/12/23 06:34:59;;;;;;;12.75;11.95;;;;;;;;;;5013061;28;20034;-60
2022/12/23 06:37:25;;;;;;;14.30;13.40;;;;;;;;;;5011987;28;20155;-60
2022/12/23 06:39:50;;;;;;;13.10;12.30;;;;;;;;;;5011743;28;20042;-60
2022/12/23 06:42:15;;;;;;;12.85;12.05;;;;;;;;;;5011689;28;20042;-60
2022/12/23 06:44:41;;;;;;;13.10;12.32;;;;;;;;;;5012485;28;20033;-60
2022/12/23 06:47:06;;;;;;;13.13;12.32;;;;;;;;;;5010007;28;20038;-60
2022/12/23 06:49:31;;;;;;;13.80;13.00;;;;;;;;;;5012010;28;20121;-60
2022/12/23 06:51:57;;;;;;;13.23;12.45;;;;;;;;;;5013792;28;20065;-58
2022/12/23 06:54:22;;;;;;;13.07;12.30;;;;;;;;;;5009855;28;20034;-59
2022/12/23 06:56:47;;;;;;;13.57;12.77;;;;;;;;;;5011677;28;20112;-58
2022/12/23 06:59:13;;;;;;;13.25;12.45;;;;;;;;;;5011956;28;20033;-58
2022/12/23 07:01:39;;;;;;;14.40;13.52;;;;;;;;;;5010931;28;20052;-59
2022/12/23 07:04:04;;;;;;;13.90;13.10;;;;;;;;;;5013662;28;20340;-58
2022/12/23 07:06:30;;;;;;;13.98;13.18;;;;;;;;;;5015908;28;20121;-66
2022/12/23 07:08:55;;;;;;;13.80;13.00;;;;;;;;;;5012466;28;20120;-65
2022/12/23 07:11:21;;;;;;;14.13;13.32;;;;;;;;;;5013422;28;20663;-65
2022/12/23 07:13:46;;;;;;;14.32;13.52;;;;;;;;;;5017228;28;20030;-66
2022/12/23 07:16:12;;;;;;;13.98;13.18;;;;;;;;;;5014843;28;20911;-65
2022/12/23 07:18:37;;;;;;;12.27;11.57;;;;;;;;;;5014230;28;20060;-66
2022/12/23 07:21:03;;;;;;;14.32;13.45;;;;;;;;;;5016324;28;20036;-66
2022/12/23 07:23:29;;;;;;;13.82;13.02;;;;;;;;;;5015850;28;20038;-65
2022/12/23 07:25:55;;;;;;;13.10;12.30;;;;;;;;;;5015375;28;21496;-66
2022/12/23 07:28:21;;;;;;;14.15;13.35;;;;;;;;;;5013628;28;20033;-65
2022/12/23 07:30:46;;;;;;;14.40;13.60;;;;;;;;;;5016221;28;20467;-66
2022/12/23 07:33:11;;;;;;;14.38;13.48;;;;;;;;;;5019317;28;20060;-65
2022/12/23 07:35:37;;;;;;;13.13;12.32;;;;;;;;;;5015279;28;20041;-65
2022/12/23 07:38:02;;;;;;;12.75;12.02;;;;;;;;;;5020242;28;20095;-65
2022/12/23 07:40:28;;;;;;;13.75;12.95;;;;;;;;;;5016419;28;20053;-65
2022/12/23 07:42:57;;;;;;;14.40;13.50;;;;;;;;;;5014483;28;20523;-65
2022/12/23 07:45:23;;;;;;;13.95;13.15;;;;;;;;;;5013437;28;20095;-64
2022/12/23 07:47:56;;;;;;;13.60;12.77;;;;;;;;;;5013677;28;20037;-65
2022/12/23 07:50:22;;;;;;;14.90;14.00;;;;;;;;;;5013356;28;20033;-67
2022/12/23 07:52:47;;;;;;;15.95;14.75;;;;;;;;;;5013993;28;20104;-65
2022/12/23 07:55:13;;;;;;;15.02;14.18;;;;;;;;;;5014239;28;20095;-65
2022/12/23 07:57:39;;;;;;;15.93;15.02;;;;;;;;;;5011492;28;20033;-65
2022/12/23 08:00:06;;;;;;;16.08;15.07;;;;;;;;;;5013019;28;20033;-65
2022/12/23 08:02:32;;;;;;;16.83;15.63;;;;;;;;;;5011223;28;20045;-65
2022/12/23 08:04:57;;;;;;;14.75;13.85;;;;;;;;;;5012132;28;20037;-65
2022/12/23 08:07:22;;;;;;;14.65;13.75;;;;;;;;;;5013585;28;20095;-58
2022/12/23 08:09:48;;;;;;;14.48;13.63;;;;;;;;;;5014445;28;20037;-58
2022/12/23 08:12:13;;;;;;;15.40;14.50;;;;;;;;;;5015691;28;20045;-58
2022/12/23 08:14:38;;;;;;;15.93;14.93;;;;;;;;;;5015739;28;20483;-58
2022/12/23 08:17:04;;;;;;;14.95;14.05;;;;;;;;;;5017254;28;20035;-58
2022/12/23 08:19:29;;;;;;;14.52;13.63;;;;;;;;;;5012350;28;20037;-58
2022/12/23 08:21:54;;;;;;;14.05;13.25;;;;;;;;;;5009843;28;20046;-58
2022/12/23 08:24:20;;;;;;;14.95;14.13;;;;;;;;;;5012773;28;20025;-58
2022/12/23 08:26:45;;;;;;;15.60;14.70;;;;;;;;;;5011877;28;20044;-58
2022/12/23 08:29:10;;;;;;;15.30;14.40;;;;;;;;;;5011771;28;20345;-58
2022/12/23 08:31:35;;;;;;;14.48;13.57;;;;;;;;;;5014818;28;20486;-58
2022/12/23 08:34:01;;;;;;;15.25;14.35;;;;;;;;;;5011916;28;20468;-59
2022/12/23 08:36:31;;;;;;;14.27;13.48;;;;;;;;;;5011441;28;20045;-59
2022/12/23 08:38:59;;;;;;;14.90;14.05;;;;;;;;;;5012364;28;20055;-59
2022/12/23 08:41:29;;;;;;;15.02;14.18;;;;;;;;;;5016317;28;20125;-60
2022/12/23 08:43:54;;;;;;;15.45;14.55;;;;;;;;;;5015549;28;20911;-59
2022/12/23 08:46:21;;;;;;;16.83;15.60;;;;;;;;;;5017293;28;20037;-60
2022/12/23 08:48:46;;;;;;;15.77;14.88;;;;;;;;;;5014106;28;20056;-60
2022/12/23 08:51:15;;;;;;;15.82;14.93;;;;;;;;;;5014792;28;20042;-59
2022/12/23 08:53:41;;;;;;;16.88;15.93;;;;;;;;;;5021759;28;20428;-60
2022/12/23 08:56:15;;;;;;;16.10;15.20;;;;;;;;;;5012716;28;20087;-59
2022/12/23 08:58:44;;;;;;;14.65;13.85;;;;;;;;;;5011079;28;20117;-59
2022/12/23 09:01:12;;;;;;;16.35;15.45;;;;;;;;;;5013831;28;20400;-59
2022/12/23 09:03:38;;;;;;;15.43;14.52;;;;;;;;;;5016090;28;20076;-59
2022/12/23 09:06:09;;;;;;;15.82;14.93;;;;;;;;;;5016606;28;20371;-59
2022/12/23 09:08:35;;;;;;;14.25;13.45;;;;;;;;;;5015721;28;20345;-60
2022/12/23 09:11:00;;;;;;;15.55;14.65;;;;;;;;;;5013166;28;20103;-59
2022/12/23 09:13:26;;;;;;;16.70;15.75;;;;;;;;;;5013692;28;20482;-59
2022/12/23 09:15:51;;;;;;;15.13;14.27;;;;;;;;;;5013798;28;20072;-65
2022/12/23 09:18:16;;;;;;;14.68;13.85;;;;;;;;;;5012337;28;20057;-65
2022/12/23 09:20:42;;;;;;;14.85;14.00;;;;;;;;;;5011123;28;20071;-65
2022/12/23 09:23:07;;;;;;;15.80;14.90;;;;;;;;;;5009754;28;20040;-65
2022/12/23 09:25:35;;;;;;;15.52;14.63;;;;;;;;;;5011571;28;20135;-59
2022/12/23 09:28:00;;;;;;;15.05;14.20;;;;;;;;;;5009871;28;20752;-65
2022/12/23 09:30:26;;;;;;;15.13;14.23;;;;;;;;;;5009998;28;20033;-65
2022/12/23 09:32:51;;;;;;;16.10;15.20;;;;;;;;;;5013914;28;20437;-65
2022/12/23 09:35:16;;;;;;;15.55;14.65;;;;;;;;;;5013374;28;20036;-65
2022/12/23 09:37:42;;;;;;;15.55;14.65;;;;;;;;;;5013142;28;20532;-64
2022/12/23 09:40:11;;;;;;;16.42;15.52;;;;;;;;;;5011575;28;20708;-65
2022/12/23 09:43:07;;;;;;;16.70;15.80;;;;;;;;;;5011235;28;20502;-66
2022/12/23 09:45:39;;;;;;;15.88;14.98;;;;;;;;;;5014007;28;20227;-65
2022/12/23 09:48:10;;;;;;;15.68;14.77;;;;;;;;;;5010367;28;20057;-65
2022/12/23 09:50:36;;;;;;;15.88;14.98;;;;;;;;;;5014000;28;20040;-65
2022/12/23 09:53:05;;;;;;;15.65;14.75;;;;;;;;;;5013331;28;20534;-66
2022/12/23 09:55:45;;;;;;;16.67;15.75;;;;;;;;;;5013286;28;20037;-66
2022/12/23 09:58:26;;;;;;;16.77;15.77;;;;;;;;;;5021968;28;20033;-65
2022/12/23 10:01:13;;;;;;;16.35;15.38;;;;;;;;;;5009967;28;20042;-65
2022/12/23 10:03:59;;;;;;;16.10;15.10;;;;;;;;;;5012129;28;20034;-65
2022/12/23 10:06:28;;;;;;;16.17;15.27;;;;;;;;;;5010048;28;20029;-65
2022/12/23 10:09:00;;;;;;;15.50;14.60;;;;;;;;;;5009011;28;20548;-65
2022/12/23 10:11:39;;;;;;;18.05;17.05;;;;;;;;;;5012361;28;20039;-66
2022/12/23 10:14:17;;;;;;;15.55;14.65;;;;;;;;;;5012387;28;20033;-66
2022/12/23 10:16:59;;;;;;;15.07;14.18;;;;;;;;;;5012195;28;20037;-65
2022/12/23 10:19:30;;;;;;;15.63;14.73;;;;;;;;;;5009460;28;20033;-60
2022/12/23 10:22:02;;;;;;;17.35;16.35;;;;;;;;;;5010949;28;20133;-65
2022/12/23 10:24:37;;;;;;;17.40;16.40;;;;;;;;;;5010525;28;20181;-65
2022/12/23 10:27:11;;;;;;;16.42;15.43;;;;;;;;;;5012874;28;20037;-60
2022/12/23 10:29:39;;;;;;;15.70;14.80;;;;;;;;;;5017729;28;20060;-65
2022/12/23 10:32:34;;;;;;;15.88;14.98;;;;;;;;;;5018685;28;20048;-59
2022/12/23 10:35:13;;;;;;;17.45;16.35;;;;;;;;;;5016146;28;20105;-65
2022/12/23 10:38:10;;;;;;;16.63;15.60;;;;;;;;;;5014374;28;20430;-59
2022/12/23 10:40:41;;;;;;;15.23;14.32;;;;;;;;;;4996951;28;20531;-59
2022/12/23 10:43:12;;;;;;;16.38;15.48;;;;;;;;;;5021819;28;20041;-64
2022/12/23 10:45:56;;;;;;;;;;;;;;;;;;5021136;28;20063;-59
2022/12/23 10:49:02;;;;;;;14.70;13.70;;;;;;;;;;5019577;28;20361;-59
2022/12/23 10:51:32;;;;;;;15.43;14.52;;;;;;;;;;5020506;28;20139;-64
2022/12/23 10:54:03;;;;;;;15.73;14.82;;;;;;;;;;5016791;28;20041;-65
2022/12/23 10:56:29;;;;;;;15.07;14.20;;;;;;;;;;5017288;28;20461;-64
2022/12/23 10:58:58;;;;;;;17.40;16.40;;;;;;;;;;5016739;28;20041;-60
2022/12/23 11:01:24;;;;;;;16.40;15.48;;;;;;;;;;5014832;28;20025;-64
2022/12/23 11:04:13;;;;;;;16.58;15.57;;;;;;;;;;5018681;28;20037;-63
2022/12/23 11:06:43;;;;;;;16.05;15.15;;;;;;;;;;5015357;28;20117;-59
2022/12/23 11:09:16;;;;;;;16.23;15.32;;;;;;;;;;5013788;28;20402;-60
2022/12/23 11:12:03;;;;;;;15.88;14.98;;;;;;;;;;5014749;28;20088;-59
2022/12/23 11:14:49;;;;;;;17.02;16.13;;;;;;;;;;5013668;28;20080;-60
2022/12/23 11:17:29;;;;;;;15.55;14.65;;;;;;;;;;5012644;28;20452;-59
2022/12/23 11:20:06;;;;;;;15.55;14.65;;;;;;;;;;5011074;28;20073;-59
2022/12/23 11:22:32;;;;;;;15.57;14.68;;;;;;;;;;5016456;28;20428;-59
2022/12/23 11:25:28;;;;;;;16.10;15.20;;;;;;;;;;5011686;28;20073;-59
2022/12/23 11:28:02;;;;;;;16.70;15.70;;;;;;;;;;5012281;28;20033;-60
2022/12/23 11:30:31;;;;;;;16.05;15.15;;;;;;;;;;5017357;28;20538;-60
2022/12/23 11:32:57;;;;;;;16.30;15.40;;;;;;;;;;5014053;28;20250;-59
2022/12/23 11:35:29;;;;;;;16.88;15.90;;;;;;;;;;5016151;28;20119;-59
2022/12/23 11:37:57;;;;;;;15.30;14.40;;;;;;;;;;5015057;28;20041;-59
2022/12/23 11:40:26;;;;;;;16.08;15.18;;;;;;;;;;5019523;28;20041;-59
2022/12/23 11:42:57;;;;;;;16.45;15.45;;;;;;;;;;5012070;28;20042;-60
2022/12/23 11:45:27;;;;;;;17.23;16.23;;;;;;;;;;5015524;28;20033;-59
2022/12/23 11:47:52;;;;;;;16.40;15.50;;;;;;;;;;5012396;28;20523;-59
2022/12/23 11:50:31;;;;;;;16.45;15.55;;;;;;;;;;5013127;28;20080;-59
2022/12/23 11:53:08;;;;;;;16.27;15.38;;;;;;;;;;5022515;28;20041;-59
2022/12/23 11:55:34;;;;;;;17.35;16.35;;;;;;;;;;5016642;28;20033;-60
2022/12/23 11:58:00;;;;;;;19.02;17.92;;;;;;;;;;5016559;28;20352;-59
2022/12/23 12:00:48;;;;;;;18.48;17.38;;;;;;;;;;5013519;28;20612;-59
2022/12/23 12:03:18;;;;;;;18.48;17.38;;;;;;;;;;5014981;28;20531;-64
2022/12/23 12:06:04;;;;;;;18.23;17.05;;;;;;;;;;5014717;28;20278;-59
2022/12/23 12:08:34;;;;;;;18.45;17.35;;;;;;;;;;5013812;28;20118;-59
2022/12/23 12:11:17;;;;;;;17.98;16.83;;;;;;;;;;5012938;28;20037;-59
2022/12/23 12:13:47;;;;;;;19.27;18.00;;;;;;;;;;5014311;28;20026;-59
2022/12/23 12:16:21;;;;;;;18.63;17.45;;;;;;;;;;5014544;28;20065;-59
2022/12/23 12:18:49;;;;;;;19.08;17.98;;;;;;;;;;5016118;28;20550;-59
2022/12/23 12:21:19;;;;;;;19.63;18.52;;;;;;;;;;5013973;28;20053;-59
2022/12/23 12:23:48;;;;;;;18.33;17.23;;;;;;;;;;5009460;28;20108;-59
2022/12/23 12:26:34;;;;;;;19.10;18.00;;;;;;;;;;5013226;28;20033;-66
2022/12/23 12:29:34;;;;;;;17.95;16.92;;;;;;;;;;5014210;28;20038;-64
2022/12/23 12:32:00;;;;;;;17.73;16.73;;;;;;;;;;5014292;28;20056;-64
2022/12/23 12:34:42;;;;;;;16.83;15.88;;;;;;;;;;5012924;28;20026;-59
2022/12/23 12:37:11;;;;;;;18.90;17.88;;;;;;;;;;5008526;28;20102;-60
2022/12/23 12:39:53;;;;;;;18.73;17.52;;;;;;;;;;5011334;28;20040;-66
2022/12/23 12:42:39;;;;;;;18.50;17.50;;;;;;;;;;5011785;28;20026;-64
2022/12/23 12:45:21;;;;;;;17.55;16.55;;;;;;;;;;5010551;28;20033;-65
2022/12/23 12:48:21;;;;;;;18.38;17.38;;;;;;;;;;5010630;28;20034;-65
2022/12/23 12:51:11;;;;;;;17.58;16.58;;;;;;;;;;5017225;28;20674;-66
2022/12/23 12:53:52;;;;;;;18.25;17.25;;;;;;;;;;5015359;28;20484;-61
2022/12/23 12:56:28;;;;;;;17.80;16.80;;;;;;;;;;5021658;28;20064;-65
2022/12/23 12:58:53;;;;;;;18.75;17.65;;;;;;;;;;5014717;28;20392;-64
2022/12/23 13:01:47;;;;;;;20.10;18.90;;;;;;;;;;5013500;28;20088;-65
2022/12/23 13:05:01;;;;;;;19.95;18.85;;;;;;;;;;5021222;28;20087;-60
2022/12/23 13:08:04;;;;;;;19.27;18.17;;;;;;;;;;4966183;28;20260;-65
2022/12/23 13:11:08;;;;;;;20.40;19.23;;;;;;;;;;5016342;28;20029;-64
2022/12/23 13:13:51;;;;;;;19.27;18.23;;;;;;;;;;4993035;28;20030;-64
2022/12/23 13:16:24;;;;;;;20.30;19.20;;;;;;;;;;5011242;28;20499;-60
2022/12/23 13:19:10;;;;;;;22.00;20.80;;;;;;;;;;5009662;28;20414;-60
2022/12/23 13:21:45;;;;;;;20.83;19.65;;;;;;;;;;5021666;28;20033;-61
2022/12/23 13:25:04;;;;;;;19.77;18.63;;;;;;;;;;5014154;28;20021;-64
2022/12/23 13:27:42;;;;;;;19.10;17.90;;;;;;;;;;5007577;28;20065;-60
2022/12/23 13:30:19;;;;;;;19.83;18.73;;;;;;;;;;5013336;28;20041;-60
2022/12/23 13:33:11;;;;;;;19.05;18.00;;;;;;;;;;5014815;28;20056;-60
2022/12/23 13:35:45;;;;;;;20.40;19.30;;;;;;;;;;5011722;28;20285;-60
2022/12/23 13:38:35;;;;;;;18.58;17.58;;;;;;;;;;5012957;28;20156;-60
2022/12/23 13:41:22;;;;;;;18.38;17.38;;;;;;;;;;5013527;28;20036;-60
2022/12/23 13:43:56;;;;;;;18.33;17.33;;;;;;;;;;5007424;28;20044;-60
2022/12/23 13:46:47;;;;;;;19.95;18.85;;;;;;;;;;5010659;28;20052;-60
2022/12/23 13:49:23;;;;;;;18.60;17.60;;;;;;;;;;5016186;28;20026;-60
2022/12/23 13:52:14;;;;;;;22.15;20.67;;;;;;;;;;5012315;28;20034;-60
2022/12/23 13:55:20;;;;;;;19.85;18.75;;;;;;;;;;5014502;28;20107;-60
2022/12/23 13:58:18;;;;;;;19.17;18.02;;;;;;;;;;5021312;28;20029;-64
2022/12/23 14:00:43;;;;;;;17.55;16.55;;;;;;;;;;5015108;28;20157;-64
2022/12/23 14:03:10;;;;;;;21.50;20.30;;;;;;;;;;5015373;28;20108;-65
2022/12/23 14:05:44;;;;;;;19.23;18.05;;;;;;;;;;5011169;28;20053;-65
2022/12/23 14:08:42;;;;;;;20.67;19.52;;;;;;;;;;5014658;28;20036;-64
2022/12/23 14:11:08;;;;;;;18.67;17.63;;;;;;;;;;5005238;28;20049;-65
2022/12/23 14:13:41;;;;;;;19.02;17.95;;;;;;;;;;5013244;28;20033;-64
2022/12/23 14:16:19;;;;;;;19.88;18.67;;;;;;;;;;5013403;28;20037;-64
2022/12/23 14:19:15;;;;;;;19.75;18.63;;;;;;;;;;5010657;28;20116;-64
2022/12/23 14:22:08;;;;;;;20.45;19.30;;;;;;;;;;5011155;28;20364;-67
2022/12/23 14:24:53;;;;;;;20.15;18.83;;;;;;;;;;5010578;28;20257;-64
2022/12/23 14:27:33;;;;;;;19.70;18.60;;;;;;;;;;5012419;28;20511;-65
2022/12/23 14:30:22;;;;;;;18.25;17.25;;;;;;;;;;5011006;28;20096;-64
2022/12/23 14:32:50;;;;;;;22.15;20.85;;;;;;;;;;5015362;28;20043;-64
2022/12/23 14:35:20;;;;;;;21.25;20.05;;;;;;;;;;5013443;28;20057;-64
2022/12/23 14:38:07;;;;;;;21.67;20.47;;;;;;;;;;5013314;28;20534;-63
2022/12/23 14:40:35;;;;;;;19.70;18.60;;;;;;;;;;5013822;28;20033;-64
2022/12/23 14:43:25;;;;;;;21.08;19.88;;;;;;;;;;5013391;28;20503;-64
2022/12/23 14:46:05;;;;;;;23.65;22.35;;;;;;;;;;5011175;28;20076;-64
2022/12/23 14:48:46;;;;;;;21.20;20.03;;;;;;;;;;5014810;28;20046;-64
2022/12/23 14:51:41;;;;;;;19.83;18.73;;;;;;;;;;5013597;28;20264;-64
2022/12/23 14:54:13;;;;;;;20.92;19.80;;;;;;;;;;5015665;28;20601;-63
2022/12/23 14:56:38;;;;;;;21.52;20.33;;;;;;;;;;5012899;28;20060;-64
2022/12/23 14:59:15;;;;;;;24.52;23.23;;;;;;;;;;5011601;28;20040;-64
2022/12/23 15:01:52;;;;;;;25.08;23.67;;;;;;;;;;5016534;28;20041;-64
2022/12/23 15:04:25;;;;;;;25.20;23.85;;;;;;;;;;5010951;28;20022;-63
2022/12/23 15:06:54;;;;;;;21.20;20.00;;;;;;;;;;5010968;28;20033;-64
2022/12/23 15:09:26;;;;;;;23.55;22.25;;;;;;;;;;5010899;28;20033;-63
2022/12/23 15:11:54;;;;;;;22.52;21.30;;;;;;;;;;5011762;28;20048;-64
2022/12/23 15:14:49;;;;;;;24.75;23.42;;;;;;;;;;5016502;28;20452;-64